sensor_id;sensor_type;location;lat;lon;timestamp;P1;durP1;ratioP1;P2;durP2;ratioP2
16516;SDS011;8371;52.272;9.746;2023-06-14T00:01:50;1.37;;;1.20;;
16516;SDS011;8371;52.272;9.746;2023-06-14T00:04:15;1.07;;;1.07;;
16516;SDS011;8371;52.272;9.746;2023-06-14T00:06:46;0.90;;;0.90;;
16516;SDS011;8371;52.272;9.746;2023-06-14T00:09:12;1.73;;;1.10;;
16516;SDS011;8371;52.272;9.746;2023-06-14T00:11:39;0.97;;;0.97;;
16516;SDS011;8371;52.272;9.746;2023-06-14T00:14:07;1.00;;;1.00;;
16516;SDS011;8371;52.272;9.746;2023-06-14T00:16:32;1.20;;;1.20;;
16516;SDS011;8371;52.272;9.746;2023-06-14T00:19:01;1.00;;;1.00;;
16516;SDS011;8371;52.272;9.746;2023-06-14T00:21:30;1.60;;;1.30;;
16516;SDS011;8371;52.272;9.746;2023-06-14T00:24:00;1.10;;;1.10;;
16516;SDS011;8371;52.272;9.746;2023-06-14T00:26:26;1.30;;;1.20;;
16516;SDS011;8371;52.272;9.746;2023-06-14T00:28:52;1.63;;;1.37;;
16516;SDS011;8371;52.272;9.746;2023-06-14T00:31:18;1.23;;;1.13;;
16516;SDS011;8371;52.272;9.746;2023-06-14T00:33:44;1.17;;;1.17;;
16516;SDS011;8371;52.272;9.746;2023-06-14T00:36:10;1.10;;;1.10;;
16516;SDS011;8371;52.272;9.746;2023-06-14T00:38:35;1.20;;;1.20;;
16516;SDS011;8371;52.272;9.746;2023-06-14T00:41:01;1.20;;;1.20;;
16516;SDS011;8371;52.272;9.746;2023-06-14T00:43:27;2.93;;;1.60;;
16516;SDS011;8371;52.272;9.746;2023-06-14T00:45:52;1.27;;;1.17;;
16516;SDS011;8371;52.272;9.746;2023-06-14T00:48:18;1.40;;;1.40;;
16516;SDS011;8371;52.272;9.746;2023-06-14T00:50:45;1.00;;;1.00;;
16516;SDS011;8371;52.272;9.746;2023-06-14T00:53:11;1.13;;;1.13;;
16516;SDS011;8371;52.272;9.746;2023-06-14T00:55:38;1.50;;;1.50;;
16516;SDS011;8371;52.272;9.746;2023-06-14T00:58:03;1.80;;;1.70;;
16516;SDS011;8371;52.272;9.746;2023-06-14T01:00:29;1.30;;;1.30;;
16516;SDS011;8371;52.272;9.746;2023-06-14T01:02:55;2.10;;;1.43;;
16516;SDS011;8371;52.272;9.746;2023-06-14T01:05:20;1.40;;;1.40;;
16516;SDS011;8371;52.272;9.746;2023-06-14T01:07:52;1.67;;;1.47;;
16516;SDS011;8371;52.272;9.746;2023-06-14T01:10:26;1.27;;;1.20;;
16516;SDS011;8371;52.272;9.746;2023-06-14T01:13:05;1.20;;;1.20;;
16516;SDS011;8371;52.272;9.746;2023-06-14T01:15:38;2.07;;;1.33;;
16516;SDS011;8371;52.272;9.746;2023-06-14T01:18:06;1.20;;;1.20;;
16516;SDS011;8371;52.272;9.746;2023-06-14T01:20:32;2.17;;;1.33;;
16516;SDS011;8371;52.272;9.746;2023-06-14T01:23:00;1.50;;;1.50;;
16516;SDS011;8371;52.272;9.746;2023-06-14T01:25:26;1.20;;;1.20;;
16516;SDS011;8371;52.272;9.746;2023-06-14T01:27:59;2.73;;;1.10;;
16516;SDS011;8371;52.272;9.746;2023-06-14T01:30:24;1.40;;;1.40;;
16516;SDS011;8371;52.272;9.746;2023-06-14T01:32:53;1.37;;;1.37;;
16516;SDS011;8371;52.272;9.746;2023-06-14T01:35:21;1.57;;;1.47;;
16516;SDS011;8371;52.272;9.746;2023-06-14T01:37:47;0.90;;;0.90;;
16516;SDS011;8371;52.272;9.746;2023-06-14T01:40:14;1.37;;;1.37;;
16516;SDS011;8371;52.272;9.746;2023-06-14T01:42:40;1.10;;;1.10;;
16516;SDS011;8371;52.272;9.746;2023-06-14T01:45:08;1.27;;;1.20;;
16516;SDS011;8371;52.272;9.746;2023-06-14T01:47:35;1.10;;;1.10;;
16516;SDS011;8371;52.272;9.746;2023-06-14T01:50:01;1.33;;;1.33;;
16516;SDS011;8371;52.272;9.746;2023-06-14T01:52:28;1.17;;;1.17;;
16516;SDS011;8371;52.272;9.746;2023-06-14T01:54:54;1.27;;;1.27;;
16516;SDS011;8371;52.272;9.746;2023-06-14T01:57:20;1.10;;;1.10;;
16516;SDS011;8371;52.272;9.746;2023-06-14T01:59:46;1.90;;;1.30;;
16516;SDS011;8371;52.272;9.746;2023-06-14T02:02:13;1.27;;;1.27;;
16516;SDS011;8371;52.272;9.746;2023-06-14T02:04:40;1.20;;;1.20;;
16516;SDS011;8371;52.272;9.746;2023-06-14T02:07:07;1.20;;;1.20;;
16516;SDS011;8371;52.272;9.746;2023-06-14T02:09:34;1.57;;;1.10;;
16516;SDS011;8371;52.272;9.746;2023-06-14T02:12:00;2.10;;;1.50;;
16516;SDS011;8371;52.272;9.746;2023-06-14T02:14:26;1.63;;;1.40;;
16516;SDS011;8371;52.272;9.746;2023-06-14T02:16:52;1.60;;;1.20;;
16516;SDS011;8371;52.272;9.746;2023-06-14T02:19:19;1.03;;;1.03;;
16516;SDS011;8371;52.272;9.746;2023-06-14T02:21:46;1.30;;;1.30;;
16516;SDS011;8371;52.272;9.746;2023-06-14T02:24:12;1.23;;;1.23;;
16516;SDS011;8371;52.272;9.746;2023-06-14T02:26:38;1.17;;;1.17;;
16516;SDS011;8371;52.272;9.746;2023-06-14T02:29:06;1.20;;;1.20;;
16516;SDS011;8371;52.272;9.746;2023-06-14T02:31:35;0.80;;;0.80;;
16516;SDS011;8371;52.272;9.746;2023-06-14T02:34:01;1.20;;;1.10;;
16516;SDS011;8371;52.272;9.746;2023-06-14T02:36:27;1.07;;;1.07;;
16516;SDS011;8371;52.272;9.746;2023-06-14T02:38:54;1.17;;;1.17;;
16516;SDS011;8371;52.272;9.746;2023-06-14T02:41:23;0.90;;;0.90;;
16516;SDS011;8371;52.272;9.746;2023-06-14T02:43:49;1.20;;;1.10;;
16516;SDS011;8371;52.272;9.746;2023-06-14T02:46:15;1.27;;;1.17;;
16516;SDS011;8371;52.272;9.746;2023-06-14T02:48:41;1.00;;;1.00;;
16516;SDS011;8371;52.272;9.746;2023-06-14T02:51:06;1.20;;;1.20;;
16516;SDS011;8371;52.272;9.746;2023-06-14T02:53:33;1.10;;;1.10;;
16516;SDS011;8371;52.272;9.746;2023-06-14T02:55:59;1.43;;;1.07;;
16516;SDS011;8371;52.272;9.746;2023-06-14T02:58:26;1.10;;;1.10;;
16516;SDS011;8371;52.272;9.746;2023-06-14T03:00:52;2.23;;;1.13;;
16516;SDS011;8371;52.272;9.746;2023-06-14T03:03:18;1.13;;;1.13;;
16516;SDS011;8371;52.272;9.746;2023-06-14T03:05:46;1.63;;;0.97;;
16516;SDS011;8371;52.272;9.746;2023-06-14T03:08:14;1.10;;;1.10;;
16516;SDS011;8371;52.272;9.746;2023-06-14T03:10:41;0.97;;;0.97;;
16516;SDS011;8371;52.272;9.746;2023-06-14T03:13:08;1.20;;;1.20;;
16516;SDS011;8371;52.272;9.746;2023-06-14T03:15:36;1.20;;;1.20;;
16516;SDS011;8371;52.272;9.746;2023-06-14T03:18:01;1.10;;;1.03;;
16516;SDS011;8371;52.272;9.746;2023-06-14T03:20:29;1.10;;;1.10;;
16516;SDS011;8371;52.272;9.746;2023-06-14T03:22:56;1.17;;;1.17;;
16516;SDS011;8371;52.272;9.746;2023-06-14T03:25:22;1.10;;;1.10;;
16516;SDS011;8371;52.272;9.746;2023-06-14T03:27:48;0.93;;;0.93;;
16516;SDS011;8371;52.272;9.746;2023-06-14T03:30:13;1.23;;;0.93;;
16516;SDS011;8371;52.272;9.746;2023-06-14T03:32:39;0.80;;;0.80;;
16516;SDS011;8371;52.272;9.746;2023-06-14T03:35:05;1.20;;;1.20;;
16516;SDS011;8371;52.272;9.746;2023-06-14T03:37:31;6.23;;;1.20;;
16516;SDS011;8371;52.272;9.746;2023-06-14T03:39:57;1.07;;;1.07;;
16516;SDS011;8371;52.272;9.746;2023-06-14T03:42:22;1.33;;;1.20;;
16516;SDS011;8371;52.272;9.746;2023-06-14T03:44:48;0.80;;;0.80;;
16516;SDS011;8371;52.272;9.746;2023-06-14T03:47:14;1.50;;;1.40;;
16516;SDS011;8371;52.272;9.746;2023-06-14T03:49:40;1.00;;;1.00;;
16516;SDS011;8371;52.272;9.746;2023-06-14T03:52:06;1.37;;;1.00;;
16516;SDS011;8371;52.272;9.746;2023-06-14T03:54:31;2.20;;;1.10;;
16516;SDS011;8371;52.272;9.746;2023-06-14T03:56:58;1.03;;;1.03;;
16516;SDS011;8371;52.272;9.746;2023-06-14T03:59:24;1.00;;;1.00;;
16516;SDS011;8371;52.272;9.746;2023-06-14T04:01:51;1.00;;;1.00;;
16516;SDS011;8371;52.272;9.746;2023-06-14T04:04:16;1.00;;;1.00;;
16516;SDS011;8371;52.272;9.746;2023-06-14T04:06:43;1.27;;;1.27;;
16516;SDS011;8371;52.272;9.746;2023-06-14T04:09:09;1.50;;;0.90;;
16516;SDS011;8371;52.272;9.746;2023-06-14T04:11:35;0.87;;;0.87;;
16516;SDS011;8371;52.272;9.746;2023-06-14T04:14:01;4.93;;;1.10;;
16516;SDS011;8371;52.272;9.746;2023-06-14T04:16:27;1.20;;;1.20;;
16516;SDS011;8371;52.272;9.746;2023-06-14T04:18:56;4.37;;;1.03;;
16516;SDS011;8371;52.272;9.746;2023-06-14T04:21:23;1.77;;;1.13;;
16516;SDS011;8371;52.272;9.746;2023-06-14T04:23:49;4.53;;;1.00;;
16516;SDS011;8371;52.272;9.746;2023-06-14T04:26:16;1.40;;;1.37;;
16516;SDS011;8371;52.272;9.746;2023-06-14T04:28:42;1.10;;;1.10;;
16516;SDS011;8371;52.272;9.746;2023-06-14T04:31:10;1.10;;;1.10;;
16516;SDS011;8371;52.272;9.746;2023-06-14T04:33:37;1.10;;;1.07;;
16516;SDS011;8371;52.272;9.746;2023-06-14T04:36:04;1.27;;;1.27;;
16516;SDS011;8371;52.272;9.746;2023-06-14T04:38:30;1.30;;;1.30;;
16516;SDS011;8371;52.272;9.746;2023-06-14T04:40:58;1.43;;;1.43;;
16516;SDS011;8371;52.272;9.746;2023-06-14T04:43:25;1.00;;;1.00;;
16516;SDS011;8371;52.272;9.746;2023-06-14T04:45:53;1.20;;;1.20;;
16516;SDS011;8371;52.272;9.746;2023-06-14T04:48:21;0.93;;;0.93;;
16516;SDS011;8371;52.272;9.746;2023-06-14T04:50:47;3.07;;;1.17;;
16516;SDS011;8371;52.272;9.746;2023-06-14T04:53:13;0.97;;;0.97;;
16516;SDS011;8371;52.272;9.746;2023-06-14T04:55:39;1.67;;;0.93;;
16516;SDS011;8371;52.272;9.746;2023-06-14T04:58:05;1.20;;;1.20;;
16516;SDS011;8371;52.272;9.746;2023-06-14T05:00:31;1.30;;;1.27;;
16516;SDS011;8371;52.272;9.746;2023-06-14T05:02:57;1.40;;;1.40;;
16516;SDS011;8371;52.272;9.746;2023-06-14T05:05:22;1.10;;;1.10;;
16516;SDS011;8371;52.272;9.746;2023-06-14T05:07:49;1.03;;;1.03;;
16516;SDS011;8371;52.272;9.746;2023-06-14T05:10:15;1.40;;;1.23;;
16516;SDS011;8371;52.272;9.746;2023-06-14T05:12:40;1.20;;;1.20;;
16516;SDS011;8371;52.272;9.746;2023-06-14T05:15:08;1.20;;;1.10;;
16516;SDS011;8371;52.272;9.746;2023-06-14T05:17:35;1.30;;;1.30;;
16516;SDS011;8371;52.272;9.746;2023-06-14T05:20:01;1.13;;;1.13;;
16516;SDS011;8371;52.272;9.746;2023-06-14T05:22:27;1.10;;;1.10;;
16516;SDS011;8371;52.272;9.746;2023-06-14T05:24:53;1.10;;;1.10;;
16516;SDS011;8371;52.272;9.746;2023-06-14T05:27:19;1.20;;;1.20;;
16516;SDS011;8371;52.272;9.746;2023-06-14T05:29:44;1.23;;;1.23;;
16516;SDS011;8371;52.272;9.746;2023-06-14T05:32:10;1.37;;;1.27;;
16516;SDS011;8371;52.272;9.746;2023-06-14T05:34:36;1.57;;;1.10;;
16516;SDS011;8371;52.272;9.746;2023-06-14T05:37:01;1.10;;;1.10;;
16516;SDS011;8371;52.272;9.746;2023-06-14T05:39:29;2.23;;;1.40;;
16516;SDS011;8371;52.272;9.746;2023-06-14T05:41:55;1.30;;;1.30;;
16516;SDS011;8371;52.272;9.746;2023-06-14T05:44:21;1.00;;;1.00;;
16516;SDS011;8371;52.272;9.746;2023-06-14T05:46:46;1.27;;;1.27;;
16516;SDS011;8371;52.272;9.746;2023-06-14T05:49:12;1.10;;;1.10;;
16516;SDS011;8371;52.272;9.746;2023-06-14T05:51:37;1.00;;;1.00;;
16516;SDS011;8371;52.272;9.746;2023-06-14T05:54:03;0.90;;;0.90;;
16516;SDS011;8371;52.272;9.746;2023-06-14T05:56:29;1.10;;;1.10;;
16516;SDS011;8371;52.272;9.746;2023-06-14T05:58:54;1.00;;;1.00;;
16516;SDS011;8371;52.272;9.746;2023-06-14T06:01:20;0.83;;;0.83;;
16516;SDS011;8371;52.272;9.746;2023-06-14T06:03:46;0.93;;;0.93;;
16516;SDS011;8371;52.272;9.746;2023-06-14T06:06:13;0.80;;;0.80;;
16516;SDS011;8371;52.272;9.746;2023-06-14T06:08:39;0.93;;;0.93;;
16516;SDS011;8371;52.272;9.746;2023-06-14T06:11:05;1.20;;;1.20;;
16516;SDS011;8371;52.272;9.746;2023-06-14T06:13:31;1.17;;;1.17;;
16516;SDS011;8371;52.272;9.746;2023-06-14T06:15:57;0.80;;;0.80;;
16516;SDS011;8371;52.272;9.746;2023-06-14T06:18:23;0.90;;;0.90;;
16516;SDS011;8371;52.272;9.746;2023-06-14T06:20:48;0.97;;;0.97;;
16516;SDS011;8371;52.272;9.746;2023-06-14T06:23:14;1.10;;;1.10;;
16516;SDS011;8371;52.272;9.746;2023-06-14T06:25:40;1.23;;;1.23;;
16516;SDS011;8371;52.272;9.746;2023-06-14T06:28:05;0.80;;;0.80;;
16516;SDS011;8371;52.272;9.746;2023-06-14T06:30:31;1.13;;;1.13;;
16516;SDS011;8371;52.272;9.746;2023-06-14T06:32:57;1.23;;;1.23;;
16516;SDS011;8371;52.272;9.746;2023-06-14T06:35:23;1.10;;;1.10;;
16516;SDS011;8371;52.272;9.746;2023-06-14T06:37:49;1.30;;;1.13;;
16516;SDS011;8371;52.272;9.746;2023-06-14T06:40:14;1.40;;;1.30;;
16516;SDS011;8371;52.272;9.746;2023-06-14T06:42:40;1.10;;;1.10;;
16516;SDS011;8371;52.272;9.746;2023-06-14T06:45:06;1.10;;;1.10;;
16516;SDS011;8371;52.272;9.746;2023-06-14T06:47:32;1.23;;;1.23;;
16516;SDS011;8371;52.272;9.746;2023-06-14T06:49:58;1.20;;;1.20;;
16516;SDS011;8371;52.272;9.746;2023-06-14T06:52:24;1.23;;;1.10;;
16516;SDS011;8371;52.272;9.746;2023-06-14T06:54:50;1.10;;;1.10;;
16516;SDS011;8371;52.272;9.746;2023-06-14T06:57:17;1.00;;;1.00;;
16516;SDS011;8371;52.272;9.746;2023-06-14T06:59:43;1.20;;;1.20;;
16516;SDS011;8371;52.272;9.746;2023-06-14T07:02:09;1.50;;;1.33;;
16516;SDS011;8371;52.272;9.746;2023-06-14T07:04:34;2.00;;;1.10;;
16516;SDS011;8371;52.272;9.746;2023-06-14T07:07:00;0.80;;;0.80;;
16516;SDS011;8371;52.272;9.746;2023-06-14T07:09:26;1.10;;;1.10;;
16516;SDS011;8371;52.272;9.746;2023-06-14T07:11:52;1.33;;;1.33;;
16516;SDS011;8371;52.272;9.746;2023-06-14T07:14:17;1.83;;;1.47;;
16516;SDS011;8371;52.272;9.746;2023-06-14T07:16:43;2.10;;;1.67;;
16516;SDS011;8371;52.272;9.746;2023-06-14T07:19:09;1.10;;;1.10;;
16516;SDS011;8371;52.272;9.746;2023-06-14T07:21:35;1.17;;;1.17;;
16516;SDS011;8371;52.272;9.746;2023-06-14T07:24:04;0.90;;;0.90;;
16516;SDS011;8371;52.272;9.746;2023-06-14T07:26:31;0.80;;;0.80;;
16516;SDS011;8371;52.272;9.746;2023-06-14T07:28:57;0.63;;;0.63;;
16516;SDS011;8371;52.272;9.746;2023-06-14T07:31:23;1.00;;;1.00;;
16516;SDS011;8371;52.272;9.746;2023-06-14T07:33:48;1.00;;;1.00;;
16516;SDS011;8371;52.272;9.746;2023-06-14T07:36:14;1.07;;;1.07;;
16516;SDS011;8371;52.272;9.746;2023-06-14T07:38:40;1.13;;;1.13;;
16516;SDS011;8371;52.272;9.746;2023-06-14T07:41:06;1.07;;;1.00;;
16516;SDS011;8371;52.272;9.746;2023-06-14T07:43:32;3.40;;;0.80;;
16516;SDS011;8371;52.272;9.746;2023-06-14T07:45:57;0.97;;;0.97;;
16516;SDS011;8371;52.272;9.746;2023-06-14T07:48:23;0.87;;;0.87;;
16516;SDS011;8371;52.272;9.746;2023-06-14T07:50:49;0.97;;;0.97;;
16516;SDS011;8371;52.272;9.746;2023-06-14T07:53:14;1.10;;;1.10;;
16516;SDS011;8371;52.272;9.746;2023-06-14T07:55:40;2.63;;;0.90;;
16516;SDS011;8371;52.272;9.746;2023-06-14T07:58:07;1.10;;;1.10;;
16516;SDS011;8371;52.272;9.746;2023-06-14T08:00:33;4.80;;;1.10;;
16516;SDS011;8371;52.272;9.746;2023-06-14T08:02:59;1.00;;;1.00;;
16516;SDS011;8371;52.272;9.746;2023-06-14T08:05:29;0.93;;;0.93;;
16516;SDS011;8371;52.272;9.746;2023-06-14T08:07:53;1.10;;;1.10;;
16516;SDS011;8371;52.272;9.746;2023-06-14T08:10:19;1.00;;;1.00;;
16516;SDS011;8371;52.272;9.746;2023-06-14T08:12:46;0.83;;;0.83;;
16516;SDS011;8371;52.272;9.746;2023-06-14T08:15:12;0.90;;;0.90;;
16516;SDS011;8371;52.272;9.746;2023-06-14T08:17:37;0.80;;;0.80;;
16516;SDS011;8371;52.272;9.746;2023-06-14T08:20:03;0.63;;;0.63;;
16516;SDS011;8371;52.272;9.746;2023-06-14T08:22:30;0.60;;;0.60;;
16516;SDS011;8371;52.272;9.746;2023-06-14T08:24:58;0.93;;;0.93;;
16516;SDS011;8371;52.272;9.746;2023-06-14T08:30:22;1.00;;;1.00;;
16516;SDS011;8371;52.272;9.746;2023-06-14T08:32:47;0.70;;;0.70;;
16516;SDS011;8371;52.272;9.746;2023-06-14T08:35:13;0.73;;;0.73;;
16516;SDS011;8371;52.272;9.746;2023-06-14T08:37:40;0.77;;;0.77;;
16516;SDS011;8371;52.272;9.746;2023-06-14T08:40:22;0.90;;;0.90;;
16516;SDS011;8371;52.272;9.746;2023-06-14T08:42:40;0.90;;;0.90;;
16516;SDS011;8371;52.272;9.746;2023-06-14T08:45:07;7.43;;;0.90;;
16516;SDS011;8371;52.272;9.746;2023-06-14T08:47:33;1.17;;;1.10;;
16516;SDS011;8371;52.272;9.746;2023-06-14T08:50:01;1.40;;;1.30;;
16516;SDS011;8371;52.272;9.746;2023-06-14T08:52:26;1.07;;;1.07;;
16516;SDS011;8371;52.272;9.746;2023-06-14T08:54:58;1.40;;;1.13;;
16516;SDS011;8371;52.272;9.746;2023-06-14T08:57:26;1.33;;;1.27;;
16516;SDS011;8371;52.272;9.746;2023-06-14T08:59:55;1.10;;;1.10;;
16516;SDS011;8371;52.272;9.746;2023-06-14T09:02:21;1.07;;;0.90;;
16516;SDS011;8371;52.272;9.746;2023-06-14T09:04:47;0.73;;;0.73;;
16516;SDS011;8371;52.272;9.746;2023-06-14T09:07:14;1.00;;;1.00;;
16516;SDS011;8371;52.272;9.746;2023-06-14T09:09:40;1.00;;;1.00;;
16516;SDS011;8371;52.272;9.746;2023-06-14T09:12:10;0.90;;;0.90;;
16516;SDS011;8371;52.272;9.746;2023-06-14T09:14:37;0.90;;;0.90;;
16516;SDS011;8371;52.272;9.746;2023-06-14T09:17:05;0.90;;;0.90;;
16516;SDS011;8371;52.272;9.746;2023-06-14T09:19:31;0.70;;;0.70;;
16516;SDS011;8371;52.272;9.746;2023-06-14T09:21:56;1.00;;;1.00;;
16516;SDS011;8371;52.272;9.746;2023-06-14T09:24:23;2.43;;;0.90;;
16516;SDS011;8371;52.272;9.746;2023-06-14T09:26:50;0.97;;;0.97;;
16516;SDS011;8371;52.272;9.746;2023-06-14T09:29:17;0.80;;;0.80;;
16516;SDS011;8371;52.272;9.746;2023-06-14T09:31:45;0.90;;;0.90;;
16516;SDS011;8371;52.272;9.746;2023-06-14T09:34:12;1.50;;;1.10;;
16516;SDS011;8371;52.272;9.746;2023-06-14T09:36:38;0.70;;;0.70;;
16516;SDS011;8371;52.272;9.746;2023-06-14T09:39:05;1.17;;;0.90;;
16516;SDS011;8371;52.272;9.746;2023-06-14T09:41:34;1.13;;;1.10;;
16516;SDS011;8371;52.272;9.746;2023-06-14T09:44:01;0.97;;;0.97;;
16516;SDS011;8371;52.272;9.746;2023-06-14T09:46:29;0.87;;;0.87;;
16516;SDS011;8371;52.272;9.746;2023-06-14T09:48:55;0.80;;;0.80;;
16516;SDS011;8371;52.272;9.746;2023-06-14T09:51:22;0.80;;;0.80;;
16516;SDS011;8371;52.272;9.746;2023-06-14T09:53:49;0.80;;;0.80;;
16516;SDS011;8371;52.272;9.746;2023-06-14T09:56:17;0.90;;;0.90;;
16516;SDS011;8371;52.272;9.746;2023-06-14T09:58:44;1.10;;;1.10;;
16516;SDS011;8371;52.272;9.746;2023-06-14T10:01:10;0.90;;;0.90;;
16516;SDS011;8371;52.272;9.746;2023-06-14T10:03:38;0.90;;;0.90;;
16516;SDS011;8371;52.272;9.746;2023-06-14T10:06:05;0.83;;;0.83;;
16516;SDS011;8371;52.272;9.746;2023-06-14T10:08:34;1.43;;;1.00;;
16516;SDS011;8371;52.272;9.746;2023-06-14T10:11:02;1.00;;;1.00;;
16516;SDS011;8371;52.272;9.746;2023-06-14T10:13:28;1.07;;;1.07;;
16516;SDS011;8371;52.272;9.746;2023-06-14T10:16:02;1.10;;;1.10;;
16516;SDS011;8371;52.272;9.746;2023-06-14T10:18:49;0.87;;;0.87;;
16516;SDS011;8371;52.272;9.746;2023-06-14T10:21:46;6.13;;;1.00;;
16516;SDS011;8371;52.272;9.746;2023-06-14T10:24:16;1.00;;;1.00;;
16516;SDS011;8371;52.272;9.746;2023-06-14T10:26:49;1.20;;;1.20;;
16516;SDS011;8371;52.272;9.746;2023-06-14T10:29:18;0.90;;;0.90;;
16516;SDS011;8371;52.272;9.746;2023-06-14T10:31:47;0.73;;;0.73;;
16516;SDS011;8371;52.272;9.746;2023-06-14T10:34:23;0.70;;;0.70;;
16516;SDS011;8371;52.272;9.746;2023-06-14T10:37:07;0.70;;;0.70;;
16516;SDS011;8371;52.272;9.746;2023-06-14T10:39:38;1.17;;;1.07;;
16516;SDS011;8371;52.272;9.746;2023-06-14T10:42:11;1.10;;;1.10;;
16516;SDS011;8371;52.272;9.746;2023-06-14T10:44:38;0.93;;;0.93;;
16516;SDS011;8371;52.272;9.746;2023-06-14T10:47:23;1.03;;;1.03;;
16516;SDS011;8371;52.272;9.746;2023-06-14T10:49:52;1.43;;;1.40;;
16516;SDS011;8371;52.272;9.746;2023-06-14T10:52:26;0.93;;;0.93;;
16516;SDS011;8371;52.272;9.746;2023-06-14T10:57:36;1.00;;;0.87;;
16516;SDS011;8371;52.272;9.746;2023-06-14T11:00:05;0.90;;;0.90;;
16516;SDS011;8371;52.272;9.746;2023-06-14T11:03:07;1.23;;;1.23;;
16516;SDS011;8371;52.272;9.746;2023-06-14T11:08:27;1.30;;;1.30;;
16516;SDS011;8371;52.272;9.746;2023-06-14T11:10:50;1.10;;;1.10;;
16516;SDS011;8371;52.272;9.746;2023-06-14T11:13:19;1.60;;;1.37;;
16516;SDS011;8371;52.272;9.746;2023-06-14T11:15:53;1.20;;;1.10;;
16516;SDS011;8371;52.272;9.746;2023-06-14T11:18:19;1.57;;;1.47;;
16516;SDS011;8371;52.272;9.746;2023-06-14T11:20:46;1.50;;;1.40;;
16516;SDS011;8371;52.272;9.746;2023-06-14T11:23:13;1.23;;;1.23;;
16516;SDS011;8371;52.272;9.746;2023-06-14T11:25:38;1.40;;;1.40;;
16516;SDS011;8371;52.272;9.746;2023-06-14T11:28:04;1.60;;;1.60;;
16516;SDS011;8371;52.272;9.746;2023-06-14T11:30:30;1.80;;;1.27;;
16516;SDS011;8371;52.272;9.746;2023-06-14T11:32:56;2.10;;;1.40;;
16516;SDS011;8371;52.272;9.746;2023-06-14T11:35:22;1.43;;;1.33;;
16516;SDS011;8371;52.272;9.746;2023-06-14T11:37:49;1.40;;;1.40;;
16516;SDS011;8371;52.272;9.746;2023-06-14T11:40:17;3.50;;;1.87;;
16516;SDS011;8371;52.272;9.746;2023-06-14T11:42:43;1.80;;;1.80;;
16516;SDS011;8371;52.272;9.746;2023-06-14T11:45:09;1.40;;;1.40;;
16516;SDS011;8371;52.272;9.746;2023-06-14T11:47:36;1.37;;;1.37;;
16516;SDS011;8371;52.272;9.746;2023-06-14T11:50:06;1.30;;;1.30;;
16516;SDS011;8371;52.272;9.746;2023-06-14T11:52:34;1.73;;;1.63;;
16516;SDS011;8371;52.272;9.746;2023-06-14T11:55:00;1.67;;;1.67;;
16516;SDS011;8371;52.272;9.746;2023-06-14T11:57:28;1.20;;;1.20;;
16516;SDS011;8371;52.272;9.746;2023-06-14T11:59:54;1.57;;;1.57;;
16516;SDS011;8371;52.272;9.746;2023-06-14T12:02:21;1.60;;;1.60;;
16516;SDS011;8371;52.272;9.746;2023-06-14T12:04:47;1.50;;;1.40;;
16516;SDS011;8371;52.272;9.746;2023-06-14T12:07:14;1.43;;;1.43;;
16516;SDS011;8371;52.272;9.746;2023-06-14T12:09:43;1.43;;;1.43;;
16516;SDS011;8371;52.272;9.746;2023-06-14T12:12:21;1.80;;;1.80;;
16516;SDS011;8371;52.272;9.746;2023-06-14T12:14:47;1.27;;;1.27;;
16516;SDS011;8371;52.272;9.746;2023-06-14T12:17:16;1.33;;;1.33;;
16516;SDS011;8371;52.272;9.746;2023-06-14T12:19:44;1.70;;;1.60;;
16516;SDS011;8371;52.272;9.746;2023-06-14T12:22:11;2.00;;;2.00;;
16516;SDS011;8371;52.272;9.746;2023-06-14T12:24:37;1.13;;;1.13;;
16516;SDS011;8371;52.272;9.746;2023-06-14T12:27:04;1.80;;;1.50;;
16516;SDS011;8371;52.272;9.746;2023-06-14T12:29:31;1.50;;;1.50;;
16516;SDS011;8371;52.272;9.746;2023-06-14T12:31:57;1.40;;;1.30;;
16516;SDS011;8371;52.272;9.746;2023-06-14T12:34:23;1.60;;;1.60;;
16516;SDS011;8371;52.272;9.746;2023-06-14T12:36:50;1.97;;;1.70;;
16516;SDS011;8371;52.272;9.746;2023-06-14T12:39:16;2.23;;;2.17;;
16516;SDS011;8371;52.272;9.746;2023-06-14T12:41:42;1.87;;;1.60;;
16516;SDS011;8371;52.272;9.746;2023-06-14T12:44:07;2.33;;;1.73;;
16516;SDS011;8371;52.272;9.746;2023-06-14T12:46:33;2.03;;;1.80;;
16516;SDS011;8371;52.272;9.746;2023-06-14T12:49:01;3.07;;;1.80;;
16516;SDS011;8371;52.272;9.746;2023-06-14T12:51:27;3.43;;;1.80;;
16516;SDS011;8371;52.272;9.746;2023-06-14T12:53:53;1.60;;;1.60;;
16516;SDS011;8371;52.272;9.746;2023-06-14T12:56:19;1.80;;;1.80;;
16516;SDS011;8371;52.272;9.746;2023-06-14T12:58:44;2.13;;;1.40;;
16516;SDS011;8371;52.272;9.746;2023-06-14T13:01:10;1.70;;;1.70;;
16516;SDS011;8371;52.272;9.746;2023-06-14T13:03:36;3.43;;;1.63;;
16516;SDS011;8371;52.272;9.746;2023-06-14T13:06:02;2.13;;;2.10;;
16516;SDS011;8371;52.272;9.746;2023-06-14T13:08:29;1.77;;;1.70;;
16516;SDS011;8371;52.272;9.746;2023-06-14T13:10:55;2.23;;;1.70;;
16516;SDS011;8371;52.272;9.746;2023-06-14T13:13:21;2.43;;;1.93;;
16516;SDS011;8371;52.272;9.746;2023-06-14T13:15:48;1.90;;;1.80;;
16516;SDS011;8371;52.272;9.746;2023-06-14T13:18:15;1.60;;;1.50;;
16516;SDS011;8371;52.272;9.746;2023-06-14T13:20:41;1.60;;;1.50;;
16516;SDS011;8371;52.272;9.746;2023-06-14T13:23:07;1.70;;;1.70;;
16516;SDS011;8371;52.272;9.746;2023-06-14T13:25:34;1.60;;;1.50;;
16516;SDS011;8371;52.272;9.746;2023-06-14T13:28:00;2.40;;;1.70;;
16516;SDS011;8371;52.272;9.746;2023-06-14T13:30:25;1.63;;;1.53;;
16516;SDS011;8371;52.272;9.746;2023-06-14T13:32:51;1.67;;;1.67;;
16516;SDS011;8371;52.272;9.746;2023-06-14T13:35:17;1.57;;;1.47;;
16516;SDS011;8371;52.272;9.746;2023-06-14T13:37:44;1.47;;;1.47;;
16516;SDS011;8371;52.272;9.746;2023-06-14T13:40:11;2.03;;;1.87;;
16516;SDS011;8371;52.272;9.746;2023-06-14T13:42:37;2.27;;;2.17;;
16516;SDS011;8371;52.272;9.746;2023-06-14T13:45:06;2.23;;;1.73;;
16516;SDS011;8371;52.272;9.746;2023-06-14T13:47:33;2.30;;;2.20;;
16516;SDS011;8371;52.272;9.746;2023-06-14T13:49:59;1.80;;;1.80;;
16516;SDS011;8371;52.272;9.746;2023-06-14T13:52:25;1.90;;;1.80;;
16516;SDS011;8371;52.272;9.746;2023-06-14T13:54:51;2.07;;;1.97;;
16516;SDS011;8371;52.272;9.746;2023-06-14T13:57:17;2.20;;;2.10;;
16516;SDS011;8371;52.272;9.746;2023-06-14T13:59:43;1.65;;;1.65;;
16516;SDS011;8371;52.272;9.746;2023-06-14T14:02:10;2.30;;;2.10;;
16516;SDS011;8371;52.272;9.746;2023-06-14T14:04:37;2.10;;;2.00;;
16516;SDS011;8371;52.272;9.746;2023-06-14T14:07:03;2.80;;;1.70;;
16516;SDS011;8371;52.272;9.746;2023-06-14T14:09:29;1.50;;;1.50;;
16516;SDS011;8371;52.272;9.746;2023-06-14T14:11:56;2.00;;;1.90;;
16516;SDS011;8371;52.272;9.746;2023-06-14T14:14:22;2.00;;;1.90;;
16516;SDS011;8371;52.272;9.746;2023-06-14T14:16:49;2.17;;;1.97;;
16516;SDS011;8371;52.272;9.746;2023-06-14T14:19:17;2.23;;;2.13;;
16516;SDS011;8371;52.272;9.746;2023-06-14T14:21:44;1.47;;;1.47;;
16516;SDS011;8371;52.272;9.746;2023-06-14T14:24:10;1.70;;;1.60;;
16516;SDS011;8371;52.272;9.746;2023-06-14T14:26:36;1.80;;;1.80;;
16516;SDS011;8371;52.272;9.746;2023-06-14T14:29:02;2.07;;;1.97;;
16516;SDS011;8371;52.272;9.746;2023-06-14T14:31:30;1.90;;;1.80;;
16516;SDS011;8371;52.272;9.746;2023-06-14T14:33:56;1.90;;;1.90;;
16516;SDS011;8371;52.272;9.746;2023-06-14T14:36:21;1.80;;;1.80;;
16516;SDS011;8371;52.272;9.746;2023-06-14T14:38:47;1.83;;;1.80;;
16516;SDS011;8371;52.272;9.746;2023-06-14T14:41:13;1.60;;;1.60;;
16516;SDS011;8371;52.272;9.746;2023-06-14T14:43:39;2.00;;;1.90;;
16516;SDS011;8371;52.272;9.746;2023-06-14T14:46:05;1.93;;;1.83;;
16516;SDS011;8371;52.272;9.746;2023-06-14T14:48:31;2.33;;;2.23;;
16516;SDS011;8371;52.272;9.746;2023-06-14T14:50:57;4.20;;;2.02;;
16516;SDS011;8371;52.272;9.746;2023-06-14T14:53:22;7.27;;;1.83;;
16516;SDS011;8371;52.272;9.746;2023-06-14T14:55:48;1.97;;;1.77;;
16516;SDS011;8371;52.272;9.746;2023-06-14T14:58:15;2.70;;;2.50;;
16516;SDS011;8371;52.272;9.746;2023-06-14T15:00:44;2.57;;;2.27;;
16516;SDS011;8371;52.272;9.746;2023-06-14T15:03:10;2.13;;;2.03;;
16516;SDS011;8371;52.272;9.746;2023-06-14T15:05:36;3.60;;;2.00;;
16516;SDS011;8371;52.272;9.746;2023-06-14T15:08:03;2.07;;;1.97;;